This is the latest recevied weather packets stored in our database for station/object KY0TEQ-13. If no packets are shown the sender has not sent any weather packets the latest 10 day(s).
| Time | Temp. | Humidity | Pressure | Rain* | Wind** | Luminosity | Snow |
|---|---|---|---|---|---|---|---|
| 1777446671 | 2.78° C | 41% | 1304.4 hPa | 0 mm | - | 0 W/m² | - |
| 1777446367 | 3.33° C | 41% | 1304.3 hPa | 0 mm | - | 0 W/m² | - |
| 1777446063 | 2.78° C | 42% | 1304.1 hPa | 0 mm | - | 0 W/m² | - |
| 1777445760 | 2.78° C | 42% | 1304.3 hPa | 0 mm | - | 0 W/m² | - |
| 1777445455 | 3.33° C | 41% | 1304.3 hPa | 0 mm | - | 0 W/m² | - |
| 1777445153 | 3.33° C | 40% | 1304.1 hPa | 0 mm | - | 0 W/m² | - |
| 1777444849 | 2.78° C | 42% | 1304.1 hPa | 0 mm | - | 0 W/m² | - |
| 1777444544 | 4.44° C | 37% | 1304.1 hPa | 0 mm | - | 0 W/m² | - |
| 1777444242 | 4.44° C | 37% | 1304.4 hPa | 0 mm | - | 0 W/m² | - |
| 1777443938 | 4.44° C | 35% | 1304.4 hPa | 0 mm | - | 0 W/m² | - |
| 1777443634 | 4.44° C | 37% | 1304.1 hPa | 0 mm | - | 0 W/m² | - |
| 1777443333 | 5° C | 35% | 1304 hPa | 0 mm | - | 0 W/m² | - |
| 1777443032 | 5° C | 35% | 1304.1 hPa | 0 mm | - | 0 W/m² | - |
| 1777442729 | 3.89° C | 37% | 1303.9 hPa | 0 mm | - | 0 W/m² | - |
| 1777442425 | 3.33° C | 39% | 1304 hPa | 0 mm | - | 0 W/m² | - |
| 1777442121 | 4.44° C | 37% | 1303.9 hPa | 0 mm | - | 0 W/m² | - |
| 1777441816 | 5° C | 35% | 1304.1 hPa | 0 mm | - | 0 W/m² | - |
| 1777441512 | 5° C | 35% | 1304.1 hPa | 0 mm | - | 0 W/m² | - |
| 1777441208 | 5° C | 35% | 1304 hPa | 0 mm | - | 0 W/m² | - |
| 1777440903 | 3.89° C | 37% | 1304.1 hPa | 0 mm | - | 0 W/m² | - |
| 1777440599 | 3.89° C | 38% | 1304 hPa | 0 mm | - | 0 W/m² | - |
| 1777440295 | 5° C | 38% | 1304.3 hPa | 0 mm | - | 0 W/m² | - |
| 1777439991 | 5.56° C | 33% | 1304.5 hPa | 0 mm | - | 0 W/m² | - |
| 1777439687 | 5° C | 34% | 1304.6 hPa | 0 mm | - | 0 W/m² | - |
| 1777439383 | 5.56° C | 35% | 1304.4 hPa | 0 mm | - | 0 W/m² | - |
* Rain latest hour (hover to see other rain measurements)
** Current wind speed in m/s (hover to see current wind gust speed)